Flight Track Log - Related Links

Times and Time Zones

All times are in EDT time to prevent confusion due to time zone crossing. See the AAL2427 flight status page for this flight to view local times or setup timezone preferences in your user account.

Time Position Orientation Groundspeed Altitude Reporting Facility
EDT Latitude Longitude Course Direction KTS MPH feet Rate Location/Type
Sat 11:12:27 PM 32.8444 -97.0511 293° West 186 214 34,000  Level Fort Worth Center
Sat 11:13:28 PM 32.7822 -97.0536 182° South 215 247 34,000 -13,328 Level Fort Worth Center
Sat 11:14:00 PM 32.6906 -97.2717 292° West  Level FlightAware Approximate
Sat 11:14:29 PM 32.7411 -97.1236 235° Southwest 273 314 6,900  Level Fort Worth Center
Sat 11:15:00 PM 32.7394 -97.4082 293° West  Level FlightAware Approximate
Sat 11:15:30 PM 32.7564 -97.2200 281° West 296 341 10,000  Level Fort Worth Center
Sat 11:16:00 PM 32.7887 -97.5447 293° West  Level FlightAware Approximate
Sat 11:16:31 PM 32.7781 -97.3217 284° West 321 369 11,700  Level Fort Worth Center
Sat 11:17:00 PM 32.8375 -97.6815 293° West  Level FlightAware Approximate
Sat 11:17:32 PM 32.8036 -97.4392 285° West 364 419 13,200  Level Fort Worth Center
Sat 11:18:33 PM 32.8331 -97.5778 284° West 396 456 15,200 1,869 Climbing Fort Worth Center
Sat 11:19:34 PM 32.8600 -97.7089 284° West 429 494 17,000 1,770 Climbing Fort Worth Center
Sat 11:20:35 PM 32.8661 -97.8617 273° West 428 493 18,800 1,721 Climbing Fort Worth Center
Sat 11:21:36 PM 32.8928 -98.0067 282° West 446 513 20,500 1,475 Climbing Fort Worth Center
Sat 11:22:37 PM 32.9247 -98.1533 285° West 457 526 21,800 1,438 Climbing Fort Worth Center
Sat 11:23:37 PM 32.9589 -98.3036 285° West 467 537 23,400 1,339 Climbing Fort Worth Center
Sat 11:24:38 PM 32.9933 -98.4414 287° West 479 551 24,500 1,377 Climbing Fort Worth Center
Sat 11:25:39 PM 33.0347 -98.6158 286° West 480 552 26,200 1,574 Climbing Fort Worth Center
Sat 11:26:40 PM 33.0736 -98.7700 287° West 485 558 27,700 1,525 Climbing Fort Worth Center
Sat 11:27:41 PM 33.1033 -98.9244 283° West 485 558 29,300 1,339 Climbing Fort Worth Center
Sat 11:28:41 PM 33.1369 -99.0764 285° West 482 555 30,400 1,140 Climbing Fort Worth Center
Sat 11:29:42 PM 33.1706 -99.2297 285° West 478 550 31,600 1,033 Climbing Fort Worth Center
Sat 11:30:43 PM 33.2031 -99.3819 284° West 478 550 32,500 984 Climbing Fort Worth Center
Sat 11:31:44 PM 33.2367 -99.5344 285° West 478 550 33,600 744 Climbing Fort Worth Center
Sat 11:32:44 PM 33.2681 -99.6850 284° West 475 547 34,000 198 Climbing Fort Worth Center
Sat 11:33:45 PM 33.3008 -99.8392 284° West 478 550 34,000  Level Fort Worth Center
Sat 11:34:46 PM 33.3328 -99.9928 284° West 479 551 34,000  Level Fort Worth Center
Sat 11:35:46 PM 33.3586 -100.1475 281° West 477 549 34,000  Level Fort Worth Center
Sat 11:36:47 PM 33.3808 -100.3056 280° West 478 550 34,000  Level Fort Worth Center
Sat 11:37:48 PM 33.4047 -100.4633 280° West 481 554 34,000  Level Fort Worth Center
Sat 11:38:48 PM 33.4333 -100.6503 280° West 481 554 34,000  Level Fort Worth Center
Sat 11:39:49 PM 33.4561 -100.8083 280° West 481 554 34,000  Level Fort Worth Center
Sat 11:40:50 PM 33.4800 -100.9642 280° West 480 552 34,000  Level Fort Worth Center
Sat 11:41:50 PM 33.5033 -101.1178 280° West 473 544 34,000  Level Fort Worth Center
Sat 11:42:51 PM 33.5258 -101.2700 280° West 468 539 34,000  Level Fort Worth Center
Sat 11:43:52 PM 33.5483 -101.4125 281° West 466 536 34,000  Level Fort Worth Center
Sat 11:44:52 PM 33.5703 -101.5639 280° West 465 535 34,000  Level Fort Worth Center
Sat 11:45:53 PM 33.5928 -101.7156 280° West 463 533 34,000  Level Fort Worth Center
Sat 11:46:53 PM 33.6142 -101.8683 280° West 464 534 34,000  Level Fort Worth Center
Sat 11:47:54 PM 33.6367 -102.0203 280° West 464 534 34,000  Level Fort Worth Center
Sat 11:48:55 PM 33.6578 -102.1714 280° West 464 534 34,000  Level Fort Worth Center
Sat 11:49:55 PM 33.6781 -102.3219 279° West 463 533 34,000  Level Fort Worth Center
Sat 11:50:56 PM 33.6994 -102.4714 280° West 460 529 34,000  Level Fort Worth Center
Sat 11:51:56 PM 33.7239 -102.6542 279° West 460 529 34,000  Level Fort Worth Center
Sat 11:52:57 PM 33.7442 -102.8036 279° West 458 527 34,000  Level Fort Worth Center
Sat 11:53:57 PM 33.7644 -102.9575 279° West 460 529 34,000  Level Fort Worth Center
Sat 11:54:58 PM 33.7850 -103.1072 279° West 460 529 34,000  Level Fort Worth Center
Sat 11:55:58 PM 33.8042 -103.2583 279° West 460 529 34,000  Level Fort Worth Center
Sat 11:56:59 PM 33.8231 -103.4094 279° West 460 529 34,000  Level Fort Worth Center
Sat 11:57:59 PM 33.8431 -103.5594 279° West 459 528 34,000  Level Fort Worth Center
Sat 11:59:00 PM 33.8631 -103.7103 279° West 459 528 34,000  Level Fort Worth Center
Sun 12:00:00 AM 33.8817 -103.8619 278° West 459 528 34,000  Level Fort Worth Center
Sun 12:01:01 AM 33.9003 -104.0122 279° West 459 528 34,000  Level Fort Worth Center
Sun 12:02:01 AM 33.9189 -104.1650 278° West 459 528 34,000  Level Fort Worth Center
Sun 12:03:02 AM 33.9375 -104.3144 279° West 456 525 34,000  Level Fort Worth Center
Sun 12:04:02 AM 33.9567 -104.4667 279° West 456 525 34,000  Level Fort Worth Center
Sun 12:05:03 AM 33.9736 -104.6175 278° West 457 526 34,000  Level Fort Worth Center
Sun 12:06:03 AM 33.9914 -104.7697 278° West 457 526 34,000  Level Fort Worth Center
Sun 12:07:03 AM 34.0133 -104.9425 279° West 457 526 34,000  Level Fort Worth Center
Sun 12:08:14 AM 34.0300 -105.1128 277° West 455 524 34,000  Level Albuquerque Center
Sun 12:09:15 AM 34.0475 -105.2669 278° West 453 521 34,000  Level Albuquerque Center
Sun 12:10:16 AM 34.0642 -105.4203 278° West 455 524 34,000  Level Albuquerque Center
Sun 12:11:17 AM 34.0806 -105.5725 277° West 455 524 34,000  Level Albuquerque Center
Sun 12:12:18 AM 34.0986 -105.7250 278° West 455 524 34,000  Level Albuquerque Center
Sun 12:13:19 AM 34.1150 -105.8778 277° West 455 524 34,000  Level Albuquerque Center
Sun 12:14:20 AM 34.1317 -106.0303 278° West 455 524 34,000  Level Albuquerque Center
Sun 12:15:21 AM 34.1475 -106.1833 277° West 455 524 34,000  Level Albuquerque Center
Sun 12:16:22 AM 34.1628 -106.3300 277° West 456 525 34,000  Level Albuquerque Center
Sun 12:17:23 AM 34.1772 -106.4831 277° West 457 526 34,000  Level Albuquerque Center
Sun 12:18:24 AM 34.1931 -106.6367 277° West 457 526 34,000  Level Albuquerque Center
Sun 12:19:25 AM 34.2092 -106.7908 277° West 459 528 34,000  Level Albuquerque Center
Sun 12:20:26 AM 34.2278 -106.9761 277° West 459 528 34,000  Level Albuquerque Center
Sun 12:21:27 AM 34.2425 -107.1328 277° West 461 531 34,000  Level Albuquerque Center
Sun 12:22:28 AM 34.2583 -107.2894 277° West 464 534 34,000  Level Albuquerque Center
Sun 12:23:29 AM 34.2725 -107.4478 276° West 467 537 34,000  Level Albuquerque Center
Sun 12:24:30 AM 34.2764 -107.6078 272° West 475 547 34,000  Level Albuquerque Center
Sun 12:25:31 AM 34.2753 -107.7694 270° West 476 548 34,000  Level Albuquerque Center
Sun 12:26:32 AM 34.2728 -107.9303 269° West 479 551 34,000  Level Albuquerque Center
Sun 12:27:33 AM 34.2706 -108.0900 269° West 479 551 34,000  Level Albuquerque Center
Sun 12:28:34 AM 34.2703 -108.2519 270° West 479 551 34,000  Level Albuquerque Center
Sun 12:29:34 AM 34.2672 -108.4131 269° West 479 551 34,000  Level Albuquerque Center
Sun 12:30:35 AM 34.2650 -108.5844 269° West 479 551 34,000  Level Albuquerque Center
Sun 12:31:36 AM 34.2464 -108.7450 262° West 481 554 34,000  Level Albuquerque Center
Sun 12:32:37 AM 34.2122 -108.9075 256° West 484 557 34,000  Level Albuquerque Center
Sun 12:33:38 AM 34.1750 -109.0519 253° West 480 552 34,000  Level Albuquerque Center
Sun 12:34:38 AM 34.1372 -109.2014 253° West 476 548 34,000  Level Albuquerque Center
Sun 12:35:39 AM 34.1056 -109.3486 255° West 463 533 34,000  Level Albuquerque Center
Sun 12:36:40 AM 34.0981 -109.5094 267° West 456 525 34,000  Level Albuquerque Center
Sun 12:37:40 AM 34.0964 -109.6778 269° West 456 525 34,000  Level Albuquerque Center
Sun 12:38:41 AM 34.0972 -109.8206 270° West 449 517 34,000  Level Albuquerque Center
Sun 12:39:42 AM 34.0953 -109.9592 269° West 439 505 34,000  Level Albuquerque Center
Sun 12:40:42 AM 34.0956 -110.0894 270° West 436 502 34,000  Level Albuquerque Center
Sun 12:41:43 AM 34.1219 -110.2581 281° West 434 499 34,000  Level Albuquerque Center
Sun 12:42:44 AM 34.1114 -110.4014 265° West 426 490 34,000  Level Albuquerque Center
Sun 12:43:44 AM 34.1094 -110.5431 269° West 426 490 34,000  Level Albuquerque Center
Sun 12:44:45 AM 34.1078 -110.6828 269° West 421 484 34,000  Level Albuquerque Center
Sun 12:45:46 AM 34.1050 -110.8269 269° West 430 495 34,000  Level Albuquerque Center
Sun 12:46:46 AM 34.1025 -110.9764 269° West 440 506 34,000  Level Albuquerque Center
Sun 12:47:47 AM 34.0989 -111.1314 268° West 457 526 34,000  Level Albuquerque Center
Sun 12:48:48 AM 34.0953 -111.2886 268° West 467 537 34,000  Level Albuquerque Center
Sun 12:49:48 AM 34.0925 -111.4456 269° West 467 537 34,000  Level Albuquerque Center
Sun 12:50:49 AM 34.0881 -111.6031 268° West 473 544 34,000  Level Albuquerque Center
Sun 12:51:49 AM 34.0825 -111.7894 268° West 473 544 34,000  Level Albuquerque Center
Sun 12:52:50 AM 34.0781 -111.9497 268° West 476 548 34,000  Level Albuquerque Center
Sun 12:53:50 AM 34.0733 -112.1058 268° West 482 555 34,000  Level Albuquerque Center
Sun 12:54:51 AM 34.0689 -112.2653 268° West 482 555 34,000  Level Albuquerque Center
Sun 12:55:52 AM 34.0639 -112.4242 268° West 479 551 34,000  Level Albuquerque Center
Sun 12:56:52 AM 34.0581 -112.5847 268° West 479 551 34,000  Level Albuquerque Center
Sun 12:57:53 AM 34.0519 -112.7461 267° West 481 554 34,000  Level Albuquerque Center
Sun 12:58:53 AM 34.0483 -112.9067 268° West 481 554 34,000  Level Albuquerque Center
Sun 12:59:54 AM 34.0414 -113.0697 267° West 484 557 34,000  Level Albuquerque Center
Sun 01:00:54 AM 34.0358 -113.2306 268° West 484 557 34,000  Level Albuquerque Center
Sun 01:01:55 AM 34.0294 -113.3897 267° West 481 554 34,000  Level Albuquerque Center
Sun 01:02:55 AM 34.0228 -113.5494 267° West 481 554 34,000  Level Albuquerque Center
Sun 01:03:56 AM 34.0169 -113.7119 268° West 479 551 34,000  Level Albuquerque Center
Sun 01:04:56 AM 34.0136 -113.8708 269° West 480 552 34,000  Level Albuquerque Center
Sun 01:05:32 AM 34.0100 -113.9878 268° West 478 550 34,000  Level Los Angeles Center
Sun 01:06:33 AM 34.0053 -114.1481 268° West 478 550 34,000  Level Los Angeles Center
Sun 01:07:34 AM 34.0003 -114.3053 268° West 476 548 34,000  Level Los Angeles Center
Sun 01:08:35 AM 33.9947 -114.4631 268° West 474 545 34,000  Level Los Angeles Center
Sun 01:09:36 AM 33.9881 -114.6214 267° West 474 545 34,000  Level Los Angeles Center
Sun 01:10:37 AM 33.9844 -114.7797 268° West 475 547 34,000  Level Los Angeles Center
Sun 01:11:38 AM 33.9783 -114.9367 267° West 474 545 34,000  Level Los Angeles Center
Sun 01:12:38 AM 33.9736 -115.0611 267° West 467 537 34,000  Level Los Angeles Center
Sun 01:13:39 AM 33.9653 -115.2489 267° West 468 539 34,000  Level Los Angeles Center
Sun 01:14:40 AM 33.9600 -115.4050 268° West 468 539 34,000  Level Los Angeles Center
Sun 01:15:41 AM 33.9528 -115.5622 267° West 470 541 34,000 -787 Level Los Angeles Center
Sun 01:16:42 AM 33.9456 -115.7208 267° West 473 544 32,400 -2,262 Descending Los Angeles Center
Sun 01:17:43 AM 33.9367 -115.9056 267° West 469 540 29,400 -2,803 Descending Los Angeles Center
Sun 01:18:44 AM 33.9292 -116.0617 267° West 468 539 26,700 -2,754 Descending Los Angeles Center
Sun 01:19:45 AM 33.9217 -116.2189 267° West 470 541 23,800 -2,975 Descending Los Angeles Center
Sun 01:20:45 AM 33.9139 -116.3708 267° West 462 532 20,700 -3,025 Descending Los Angeles Center
Sun 01:21:46 AM 33.9064 -116.5219 267° West 458 527 17,700 -2,557 Descending Los Angeles Center
Sun 01:22:47 AM 33.8997 -116.6661 267° West 438 504 15,500 -1,869 Descending Los Angeles Center
Sun 01:23:48 AM 33.8914 -116.8006 266° West 410 472 13,900 -1,279 Descending Los Angeles Center
Sun 01:24:49 AM 33.9106 -116.9156 281° West 358 412 12,900 -1,488 Descending Los Angeles Center
Sun 01:25:49 AM 33.9467 -117.0258 292° West 350 403 10,900 -1,736 Descending Los Angeles Center
Sun 01:26:50 AM 33.9789 -117.1278 291° West 329 379 9,400 -2,016 Descending Los Angeles Center
Sun 01:27:51 AM 34.0122 -117.2289 292° West 302 348 6,800 -2,276 Descending Los Angeles Center
Sun 01:28:46 AM 34.0333 -117.3167 286° West 262 302 5,000 -1,409 Descending Southern California TRACON
Sun 01:29:46 AM 34.0500 -117.3833 287° West 216 249 4,100 -1,000 Descending Southern California TRACON
Sun 01:30:52 AM 34.0500 -117.4667 270° West 192 221 2,900 -1,000 Descending Southern California TRACON
Sun 01:31:52 AM 34.0500 -117.5167 270° West 158 182 2,000 -800 Descending Southern California TRACON
Sun 01:32:52 AM 34.0500 -117.5667 270° West 135 155 1,300 -700 Descending Southern California TRACON

Login

Don't have an account? Register now (free) for customized features, flight alerts, and more!